createdAt,value
2022-08-11T00:01:28.100Z,86116.81
2022-08-11T00:04:05.513Z,86148.13
2022-08-11T00:06:36.990Z,86125.03
2022-08-11T00:09:26.562Z,86163.28
2022-08-11T00:11:58.655Z,86159.09
2022-08-11T00:14:37.351Z,86168.53
2022-08-11T00:17:16.507Z,86152.25
2022-08-11T00:20:12.507Z,86138.41
2022-08-11T00:22:40.437Z,86160.19
2022-08-11T00:25:16.487Z,86161.41
2022-08-11T00:27:44.735Z,86176.78
2022-08-11T00:30:14.264Z,86137.16
2022-08-11T00:32:44.523Z,86148.09
2022-08-11T00:35:56.096Z,86162.63
2022-08-11T00:38:05.487Z,86130.53
2022-08-11T00:41:03.362Z,86102.69
2022-08-11T00:44:08.852Z,86159.00
2022-08-11T00:47:16.301Z,86161.94
2022-08-11T00:49:50.517Z,86166.78
2022-08-11T00:52:40.616Z,86157.09
2022-08-11T00:55:27.047Z,86159.28
2022-08-11T00:58:12.025Z,86162.09
2022-08-11T01:01:16.250Z,86140.84
2022-08-11T01:03:54.793Z,86155.88
2022-08-11T01:06:42.161Z,86166.09
2022-08-11T01:09:34.513Z,86136.69
2022-08-11T01:12:12.187Z,86161.47
2022-08-11T01:15:17.029Z,86164.22
2022-08-11T01:18:04.451Z,86164.22
2022-08-11T01:20:54.862Z,86159.97
2022-08-11T01:23:58.233Z,86158.06
2022-08-11T01:27:19.664Z,86134.00
2022-08-11T01:30:06.436Z,86155.88
2022-08-11T01:33:11.719Z,86156.56
2022-08-11T01:36:09.161Z,86146.31
2022-08-11T01:38:52.164Z,86151.63
2022-08-11T01:41:57.182Z,86151.47
2022-08-11T01:45:00.171Z,86149.44
2022-08-11T01:47:53.899Z,86079.03
2022-08-11T01:50:31.328Z,86140.41
2022-08-11T01:53:19.091Z,86153.00
2022-08-11T01:56:23.848Z,86154.28
2022-08-11T01:58:58.477Z,86148.75
2022-08-11T02:01:40.262Z,86145.72
2022-08-11T02:04:23.992Z,86134.25
2022-08-11T02:07:19.353Z,86137.38
2022-08-11T02:10:39.149Z,86141.78
2022-08-11T02:13:19.339Z,86139.00
2022-08-11T02:16:27.671Z,86143.28
2022-08-11T02:19:38.095Z,86141.16
2022-08-11T02:22:37.160Z,86143.97
2022-08-11T02:25:36.000Z,86123.34
2022-08-11T02:28:13.594Z,86116.38
2022-08-11T02:32:24.175Z,86126.47
2022-08-11T02:34:37.543Z,86131.41
2022-08-11T02:37:16.162Z,86126.47
2022-08-11T02:40:10.743Z,86124.97
2022-08-11T02:42:48.213Z,86127.84
2022-08-11T02:45:38.105Z,86118.06
2022-08-11T02:48:33.842Z,86122.31
2022-08-11T02:51:32.798Z,86130.72
2022-08-11T02:54:14.483Z,86056.78
2022-08-11T02:56:47.259Z,86085.53
2022-08-11T02:59:52.939Z,86125.09
2022-08-11T03:02:32.584Z,86123.00
2022-08-11T03:05:13.929Z,86131.41
2022-08-11T03:08:07.059Z,86115.69
2022-08-11T03:11:34.184Z,86127.84
2022-08-11T03:14:54.902Z,86132.09
2022-08-11T03:17:29.706Z,86139.06
2022-08-11T03:20:23.695Z,86132.75
2022-08-11T03:23:20.476Z,86129.22
2022-08-11T03:26:07.712Z,86134.81
2022-08-11T03:28:51.652Z,86111.59
2022-08-11T03:31:29.159Z,86124.72
2022-08-11T03:34:23.550Z,86092.50
2022-08-11T03:37:39.198Z,86134.81
2022-08-11T03:40:38.147Z,86132.84
2022-08-11T03:43:58.689Z,86129.34
2022-08-11T03:46:45.393Z,86121.56
2022-08-11T03:49:26.540Z,86119.78
2022-08-11T03:52:08.174Z,86116.50
2022-08-11T03:54:56.873Z,86129.41
2022-08-11T03:58:01.394Z,86131.53
2022-08-11T04:01:07.206Z,86135.03
2022-08-11T04:04:03.844Z,86137.97
2022-08-11T04:06:53.201Z,86133.75
2022-08-11T04:09:59.434Z,86114.63
2022-08-11T04:13:04.470Z,86140.84
2022-08-11T04:16:12.235Z,86129.09
2022-08-11T04:19:18.858Z,86142.91
2022-08-11T04:21:58.196Z,86151.38
2022-08-11T04:24:40.182Z,86150.81
2022-08-11T04:27:56.359Z,86111.03
2022-08-11T04:30:55.400Z,86153.56
2022-08-11T04:33:56.076Z,86154.94
2022-08-11T04:36:47.872Z,86159.09
2022-08-11T04:39:33.677Z,86153.50
2022-08-11T04:42:41.701Z,86150.56
2022-08-11T04:45:41.241Z,86167.38
2022-08-11T04:48:36.706Z,86156.75
2022-08-11T04:52:04.861Z,86158.06
2022-08-11T04:55:13.180Z,86151.69
2022-08-11T04:58:21.210Z,86155.88
2022-08-11T05:01:43.921Z,86153.13
2022-08-11T05:04:52.244Z,86148.59
2022-08-11T05:07:28.914Z,86144.03
2022-08-11T05:10:14.735Z,86146.16
2022-08-11T05:12:49.985Z,86119.88
2022-08-11T05:15:44.671Z,86150.03
2022-08-11T05:18:39.304Z,86121.31
2022-08-11T05:21:44.455Z,86104.56
2022-08-11T05:25:10.272Z,86146.88
2022-08-11T05:28:27.623Z,86147.50
2022-08-11T05:31:33.393Z,86153.81
2022-08-11T05:34:31.507Z,86119.50
2022-08-11T05:37:25.764Z,86149.28
2022-08-11T05:40:19.084Z,86118.09
2022-08-11T05:43:14.434Z,86111.41
2022-08-11T05:46:10.143Z,86111.69
2022-08-11T05:49:00.679Z,86105.84
2022-08-11T05:52:05.682Z,86121.09
2022-08-11T05:55:07.107Z,86106.16
2022-08-11T05:57:50.871Z,86137.47
2022-08-11T06:00:21.315Z,86147.31
2022-08-11T06:02:55.648Z,86134.41
2022-08-11T06:05:48.866Z,86059.84
2022-08-11T06:08:36.294Z,86134.78
2022-08-11T06:11:06.726Z,86099.31
2022-08-11T06:13:36.522Z,86127.81
2022-08-11T06:16:09.313Z,86141.97
2022-08-11T06:18:38.358Z,86147.19
2022-08-11T06:21:11.001Z,86140.47
2022-08-11T06:23:43.451Z,86132.09
2022-08-11T06:26:14.108Z,86141.34
2022-08-11T06:28:45.878Z,86121.47
2022-08-11T06:31:18.815Z,86113.75
2022-08-11T06:34:02.678Z,86146.28
2022-08-11T06:37:04.710Z,86137.63
2022-08-11T06:39:53.339Z,86143.06
2022-08-11T06:42:37.549Z,86140.78
2022-08-11T06:45:34.308Z,86143.78
2022-08-11T06:48:04.427Z,86139.63
2022-08-11T06:50:52.754Z,86138.94
2022-08-11T06:53:22.200Z,86128.03
2022-08-11T06:56:09.946Z,86137.31
2022-08-11T06:59:01.305Z,86134.09
2022-08-11T07:01:50.996Z,86153.69
2022-08-11T07:05:01.266Z,86160.41
2022-08-11T07:08:34.419Z,86150.94
2022-08-11T07:12:08.161Z,86157.75
2022-08-11T07:15:00.688Z,86137.47
2022-08-11T07:17:30.964Z,86150.41
2022-08-11T07:20:20.490Z,86160.47
2022-08-11T07:23:18.381Z,86126.91
2022-08-11T07:26:11.333Z,86164.03
2022-08-11T07:29:01.623Z,86150.41
2022-08-11T07:31:37.655Z,86146.41
2022-08-11T07:34:22.395Z,86166.06
2022-08-11T07:36:58.814Z,86160.78
2022-08-11T07:39:28.464Z,86167.31
2022-08-11T07:41:59.086Z,86141.75
2022-08-11T07:44:34.674Z,86160.69
2022-08-11T07:47:23.172Z,86162.56
2022-08-11T07:50:13.248Z,86160.75
2022-08-11T07:52:41.696Z,86173.47
2022-08-11T07:55:15.163Z,86135.47
2022-08-11T07:58:16.295Z,86137.13
2022-08-11T08:01:16.012Z,86164.16
2022-08-11T08:04:10.183Z,86153.88
2022-08-11T08:06:58.812Z,86162.41
2022-08-11T08:09:46.230Z,86131.28
2022-08-11T08:12:34.478Z,86134.88
2022-08-11T08:15:26.949Z,86158.97
2022-08-11T08:18:20.602Z,86115.03
2022-08-11T08:20:48.292Z,86132.03
2022-08-11T08:23:17.834Z,86132.31
2022-08-11T08:25:47.262Z,86134.78
2022-08-11T08:28:21.253Z,86110.66
2022-08-11T08:30:51.936Z,86140.84
2022-08-11T08:33:26.758Z,86120.31
2022-08-11T08:36:17.352Z,86128.69
2022-08-11T08:38:51.594Z,86158.09
2022-08-11T08:41:23.804Z,86157.22
2022-08-11T08:44:02.442Z,86153.13
2022-08-11T08:46:50.951Z,86155.66
2022-08-11T08:49:23.951Z,86163.59
2022-08-11T08:52:20.486Z,86153.84
2022-08-11T08:54:51.518Z,86130.09
2022-08-11T08:57:21.230Z,86141.66
2022-08-11T08:59:51.528Z,86144.53
2022-08-11T09:02:34.477Z,86144.22
2022-08-11T09:05:04.811Z,86142.22
2022-08-11T09:07:39.400Z,86134.47
2022-08-11T09:10:10.478Z,86145.59
2022-08-11T09:12:44.345Z,86142.44
2022-08-11T09:15:19.385Z,86102.16
2022-08-11T09:17:53.994Z,86141.78
2022-08-11T09:20:25.864Z,86082.50
2022-08-11T09:26:31.030Z,86130.91
2022-08-11T09:29:01.107Z,86145.41
2022-08-11T09:31:38.988Z,86136.25
2022-08-11T09:34:14.202Z,86128.00
2022-08-11T09:37:03.412Z,86137.50
2022-08-11T09:40:06.387Z,86111.69
2022-08-11T09:42:53.272Z,86124.00
2022-08-11T09:45:21.521Z,86131.72
2022-08-11T09:47:49.348Z,86115.97
2022-08-11T09:50:21.287Z,86126.84
2022-08-11T09:53:16.959Z,86129.22
2022-08-11T09:55:39.994Z,86125.47
2022-08-11T09:58:35.193Z,86126.09
2022-08-11T10:01:08.283Z,86104.13
2022-08-11T10:03:41.073Z,86113.63
2022-08-11T10:06:33.301Z,86101.16
2022-08-11T10:09:06.800Z,86109.56
2022-08-11T10:11:37.282Z,86083.94
2022-08-11T10:14:32.632Z,86092.56
2022-08-11T10:17:07.602Z,86104.81
2022-08-11T10:19:40.960Z,86100.69
2022-08-11T10:22:28.312Z,86070.63
2022-08-11T10:25:19.781Z,86073.69
2022-08-11T10:28:33.155Z,86084.91
2022-08-11T10:31:12.477Z,86118.00
2022-08-11T10:34:01.605Z,86121.66
2022-08-11T10:36:34.830Z,86123.41
2022-08-11T10:39:05.593Z,86092.00
2022-08-11T10:42:08.351Z,86116.53
2022-08-11T10:44:42.846Z,86129.75
2022-08-11T10:47:32.288Z,86125.72
2022-08-11T10:50:34.050Z,86127.19
2022-08-11T10:53:21.715Z,86101.75
2022-08-11T10:56:08.867Z,86110.38
2022-08-11T10:58:50.678Z,86113.09
2022-08-11T11:01:22.908Z,86115.81
2022-08-11T11:04:00.676Z,86076.50
2022-08-11T11:06:45.040Z,86113.69
2022-08-11T11:09:20.062Z,86082.25
2022-08-11T11:12:17.772Z,86081.25
2022-08-11T11:15:06.809Z,86056.09
2022-08-11T11:17:56.609Z,86068.28
2022-08-11T11:20:36.420Z,86087.69
2022-08-11T11:23:40.082Z,86090.25
2022-08-11T11:26:27.619Z,86085.94
2022-08-11T11:29:10.773Z,86094.31
2022-08-11T11:32:14.661Z,86081.06
2022-08-11T11:34:59.533Z,86092.13
2022-08-11T11:37:30.035Z,86092.78
2022-08-11T11:39:59.100Z,86088.84
2022-08-11T11:42:26.808Z,86085.63
2022-08-11T11:44:57.224Z,86070.63
2022-08-11T11:47:27.351Z,86052.88
2022-08-11T11:49:55.731Z,86046.09
2022-08-11T11:52:24.633Z,86063.19
2022-08-11T11:54:55.998Z,86045.75
2022-08-11T11:57:59.042Z,86055.31
2022-08-11T12:00:48.285Z,86078.75
2022-08-11T12:03:18.566Z,86033.66
2022-08-11T12:05:47.232Z,86088.06
2022-08-11T12:08:16.518Z,86035.03
2022-08-11T12:11:16.021Z,86084.44
2022-08-11T12:13:46.596Z,86050.97
2022-08-11T12:16:33.573Z,86066.31
2022-08-11T12:19:07.886Z,86061.19
2022-08-11T12:21:37.597Z,86057.69
2022-08-11T12:24:28.507Z,86069.06
2022-08-11T12:27:18.891Z,86073.22
2022-08-11T12:30:06.698Z,86049.81
2022-08-11T12:32:38.129Z,86074.56
2022-08-11T12:35:07.309Z,86031.53
2022-08-11T12:37:44.905Z,86060.22
2022-08-11T12:40:50.066Z,86066.72
2022-08-11T12:44:03.993Z,86041.78
2022-08-11T12:46:39.103Z,86058.28
2022-08-11T12:49:32.061Z,86075.56
2022-08-11T12:52:14.954Z,86082.53
2022-08-11T12:54:47.244Z,86070.25
2022-08-11T12:57:37.842Z,86082.56
2022-08-11T13:00:29.123Z,86066.00
2022-08-11T13:03:16.571Z,86065.81
2022-08-11T13:05:47.899Z,86060.22
2022-08-11T13:08:17.215Z,86086.03
2022-08-11T13:11:05.779Z,86056.34
2022-08-11T13:13:55.269Z,86084.19
2022-08-11T13:16:31.671Z,86083.06
2022-08-11T13:19:01.546Z,86075.06
2022-08-11T13:21:31.568Z,86083.44
2022-08-11T13:24:03.381Z,86083.28
2022-08-11T13:26:47.212Z,86094.47
2022-08-11T13:29:23.817Z,86084.59
2022-08-11T13:31:58.845Z,86098.81
2022-08-11T13:34:28.011Z,86096.78
2022-08-11T13:37:00.428Z,86077.97
2022-08-11T13:39:30.921Z,86089.72
2022-08-11T13:42:01.385Z,86098.56
2022-08-11T13:44:36.242Z,86113.13
2022-08-11T13:47:05.420Z,86113.50
2022-08-11T13:49:39.743Z,86113.16
2022-08-11T13:52:13.173Z,86111.69
2022-08-11T13:54:42.758Z,86086.34
2022-08-11T13:58:07.705Z,86117.34
2022-08-11T14:00:23.565Z,86111.91
2022-08-11T14:02:57.502Z,86072.97
2022-08-11T14:05:33.072Z,86096.19
2022-08-11T14:08:37.126Z,86113.91
2022-08-11T14:12:21.426Z,86100.22
2022-08-11T14:14:17.887Z,86104.81
2022-08-11T14:16:48.266Z,86085.94
2022-08-11T14:19:22.126Z,86099.72
2022-08-11T14:22:08.765Z,86091.00
2022-08-11T14:24:53.024Z,86086.44
2022-08-11T14:28:25.585Z,86083.28
2022-08-11T14:30:36.759Z,86094.22
2022-08-11T14:33:16.861Z,86080.75
2022-08-11T14:35:48.890Z,86058.75
2022-08-11T14:38:20.048Z,86106.28
2022-08-11T14:41:08.297Z,86091.47
2022-08-11T14:44:12.695Z,86090.41
2022-08-11T14:47:02.064Z,86117.06
2022-08-11T14:49:30.554Z,86127.00
2022-08-11T14:51:59.407Z,86117.28
2022-08-11T14:54:49.598Z,86118.53
2022-08-11T14:57:55.323Z,86061.44
2022-08-11T15:00:17.358Z,86105.34
2022-08-11T15:03:11.147Z,86093.00
2022-08-11T15:05:55.782Z,86088.00
2022-08-11T15:08:46.815Z,86119.88
2022-08-11T15:11:36.993Z,86115.97
2022-08-11T15:14:09.024Z,86110.47
2022-08-11T15:17:01.370Z,86105.31
2022-08-11T15:19:37.535Z,86113.22
2022-08-11T15:22:36.599Z,86109.81
2022-08-11T15:25:04.635Z,86110.91
2022-08-11T15:27:53.733Z,86114.69
2022-08-11T15:30:52.363Z,86091.94
2022-08-11T15:33:39.782Z,86113.22
2022-08-11T15:36:28.831Z,86113.53
2022-08-11T15:39:03.871Z,86112.34
2022-08-11T15:42:04.234Z,86080.88
2022-08-11T15:47:41.373Z,86070.59
2022-08-11T15:50:17.975Z,86074.63
2022-08-11T15:53:01.978Z,86094.66
2022-08-11T15:55:33.574Z,86119.06
2022-08-11T15:58:23.444Z,86118.97
2022-08-11T16:01:13.216Z,86123.22
2022-08-11T16:04:12.599Z,86124.78
2022-08-11T16:06:58.956Z,86126.34
2022-08-11T16:09:51.849Z,86126.34
2022-08-11T16:12:28.743Z,86135.00
2022-08-11T16:15:35.091Z,86107.28
2022-08-11T16:18:07.060Z,86143.06
2022-08-11T16:20:36.034Z,86137.44
2022-08-11T16:23:06.802Z,86100.41
2022-08-11T16:27:02.536Z,86138.97
2022-08-11T16:28:26.761Z,86100.47
2022-08-11T16:30:56.641Z,86142.06
2022-08-11T16:33:49.833Z,86140.31
2022-08-11T16:36:35.255Z,86113.25
2022-08-11T16:39:04.554Z,86133.19
2022-08-11T16:41:54.255Z,86137.88
2022-08-11T16:44:42.047Z,86139.13
2022-08-11T16:48:02.099Z,86131.53
2022-08-11T16:50:11.189Z,86146.19
2022-08-11T16:52:38.862Z,86134.91
2022-08-11T16:55:06.851Z,86146.88
2022-08-11T16:57:53.534Z,86130.38
2022-08-11T17:00:21.499Z,86158.81
2022-08-11T17:03:12.497Z,86149.31
2022-08-11T17:06:08.589Z,86143.59
2022-08-11T17:09:01.742Z,86163.00
2022-08-11T17:11:52.197Z,86160.75
2022-08-11T17:14:38.146Z,86163.28
2022-08-11T17:17:13.077Z,86162.28
2022-08-11T17:20:38.535Z,86157.53
2022-08-11T17:22:52.437Z,86156.75
2022-08-11T17:25:22.061Z,86145.13
2022-08-11T17:27:52.836Z,86156.03
2022-08-11T17:30:22.295Z,86151.28
2022-08-11T17:33:10.561Z,86158.78
2022-08-11T17:35:41.889Z,86154.63
2022-08-11T17:38:18.621Z,86161.09
2022-08-11T17:41:10.608Z,86138.41
2022-08-11T17:44:07.050Z,86137.78
2022-08-11T17:46:56.291Z,86165.72
2022-08-11T17:49:25.420Z,86154.41
2022-08-11T17:52:12.643Z,86176.78
2022-08-11T17:55:00.709Z,86171.28
2022-08-11T17:57:49.368Z,86156.22
2022-08-11T18:00:17.758Z,86198.53
2022-08-11T18:03:04.815Z,86202.13
2022-08-11T18:05:36.428Z,86200.34
2022-08-11T18:08:27.162Z,86191.97
2022-08-11T18:11:17.532Z,86210.06
2022-08-11T18:14:25.084Z,86213.50
2022-08-11T18:17:11.500Z,86167.31
2022-08-11T18:19:58.351Z,86186.75
2022-08-11T18:22:50.497Z,86206.41
2022-08-11T18:25:45.363Z,86209.22
2022-08-11T18:28:34.613Z,86201.91
2022-08-11T18:31:24.064Z,86187.75
2022-08-11T18:34:11.626Z,86213.66
2022-08-11T18:37:29.519Z,86223.72
2022-08-11T18:40:33.787Z,86212.84
2022-08-11T18:43:27.372Z,86199.69
2022-08-11T18:46:21.823Z,86228.69
2022-08-11T18:50:03.488Z,86234.38
2022-08-11T18:52:42.675Z,86225.34
2022-08-11T18:55:35.671Z,86225.00
2022-08-11T18:58:26.811Z,86216.06
2022-08-11T19:01:21.018Z,86236.78
2022-08-11T19:04:11.894Z,86236.78
2022-08-11T19:07:06.278Z,86230.56
2022-08-11T19:09:55.821Z,86236.78
2022-08-11T19:12:44.609Z,86214.00
2022-08-11T19:15:32.547Z,86237.69
2022-08-11T19:18:22.276Z,86250.53
2022-08-11T19:21:10.721Z,86237.00
2022-08-11T19:24:02.060Z,86231.38
2022-08-11T19:26:50.465Z,86209.53
2022-08-11T19:30:04.753Z,86232.28
2022-08-11T19:32:49.282Z,86225.31
2022-08-11T19:35:36.545Z,86237.31
2022-08-11T19:38:23.624Z,86234.50
2022-08-11T19:41:11.753Z,86227.78
2022-08-11T19:44:00.145Z,86242.94
2022-08-11T19:46:46.888Z,86215.50
2022-08-11T19:49:35.370Z,86225.72
2022-08-11T19:52:23.052Z,86200.47
2022-08-11T19:55:11.149Z,86194.78
2022-08-11T19:57:59.102Z,86226.75
2022-08-11T20:00:45.748Z,86215.41
2022-08-11T20:03:33.394Z,86235.72
2022-08-11T20:06:25.592Z,86233.66
2022-08-11T20:09:17.771Z,86220.63
2022-08-11T20:12:08.570Z,86235.09
2022-08-11T20:14:59.766Z,86244.31
2022-08-11T20:17:51.246Z,86243.53
2022-08-11T20:20:41.650Z,86231.59
2022-08-11T20:23:31.610Z,86246.50
2022-08-11T20:26:30.913Z,86247.19
2022-08-11T20:29:20.233Z,86222.81
2022-08-11T20:32:09.665Z,86252.81
2022-08-11T20:34:57.863Z,86211.78
2022-08-11T20:37:50.150Z,86240.88
2022-08-11T20:40:41.778Z,86234.91
2022-08-11T20:44:08.189Z,86239.16
2022-08-11T20:46:41.618Z,86251.63
2022-08-11T20:49:45.079Z,86253.22
2022-08-11T20:52:40.167Z,86241.81
2022-08-11T20:55:46.439Z,86248.88
2022-08-11T20:59:04.078Z,86247.53
2022-08-11T21:01:44.967Z,86245.38
2022-08-11T21:04:32.397Z,86249.66
2022-08-11T21:07:27.859Z,86239.09
2022-08-11T21:10:23.446Z,86246.16
2022-08-11T21:13:26.011Z,86184.75
2022-08-11T21:16:26.293Z,86184.75
2022-08-11T21:19:54.505Z,86246.22
2022-08-11T21:22:28.443Z,86229.06
2022-08-11T21:25:17.678Z,86249.69
2022-08-11T21:28:07.260Z,86264.72
2022-08-11T21:30:57.443Z,86149.00
2022-08-11T21:33:47.880Z,86251.81
2022-08-11T21:36:38.007Z,86216.75
2022-08-11T21:39:26.820Z,86212.31
2022-08-11T21:42:15.800Z,86259.41
2022-08-11T21:45:03.972Z,86269.28
2022-08-11T21:48:01.151Z,86257.19
2022-08-11T21:50:49.010Z,86240.69
2022-08-11T21:53:36.817Z,86268.06
2022-08-11T21:56:25.533Z,86251.78
2022-08-11T21:59:16.370Z,86259.28
2022-08-11T22:02:05.381Z,86262.63
2022-08-11T22:04:55.345Z,86257.75
2022-08-11T22:07:41.790Z,86258.84
2022-08-11T22:10:40.699Z,86262.91
2022-08-11T22:13:33.057Z,86267.19
2022-08-11T22:16:19.936Z,86262.91
2022-08-11T22:19:09.334Z,86265.72
2022-08-11T22:22:03.816Z,86259.53
2022-08-11T22:24:52.725Z,86251.94
2022-08-11T22:27:40.954Z,86248.00
2022-08-11T22:30:30.175Z,86239.84
2022-08-11T22:33:24.502Z,86241.41
2022-08-11T22:36:14.808Z,86252.84
2022-08-11T22:39:05.523Z,86255.19
2022-08-11T22:41:52.635Z,86250.88
2022-08-11T22:44:39.360Z,86242.09
2022-08-11T22:47:33.396Z,86250.25
2022-08-11T22:50:29.212Z,86229.63
2022-08-11T22:53:16.554Z,86226.56
2022-08-11T22:56:03.433Z,86214.81
2022-08-11T22:58:51.139Z,86191.53
2022-08-11T23:01:38.542Z,86222.38
2022-08-11T23:04:42.203Z,86225.06
2022-08-11T23:07:50.847Z,86207.53
2022-08-11T23:10:38.375Z,86227.50
2022-08-11T23:13:27.409Z,86229.53
2022-08-11T23:16:14.840Z,86237.66
2022-08-11T23:19:02.100Z,86239.09
2022-08-11T23:21:51.000Z,86230.59
2022-08-11T23:24:40.066Z,86229.38
2022-08-11T23:27:29.483Z,86225.81
2022-08-11T23:30:19.724Z,86234.91
2022-08-11T23:33:11.666Z,86182.88
2022-08-11T23:36:03.588Z,86223.75
2022-08-11T23:38:52.408Z,86218.81
2022-08-11T23:41:40.328Z,86195.63
2022-08-11T23:44:27.873Z,86211.31
2022-08-11T23:47:18.557Z,86212.22
2022-08-11T23:50:06.893Z,86208.22
2022-08-11T23:52:55.120Z,86175.88
2022-08-11T23:55:41.732Z,86192.97
2022-08-11T23:58:33.435Z,86199.56
